Piedra, California
Current Conditions -  °F | °C
As of 8:53 PM on Friday 24 Oct 2014 (Local Time) from KFAT Reporting Station
Clear Clear  
Wind Chill: 71°   Ceiling: Unl
Heat Index: 71°   Visibility: 10mi
Dew Point: 47°   Wind: 0mph
Humidity: 42%   Direction: NA
Pressure: 29.9"   Gusts: NA
Location:  36.81°N, 119.38°W
Report Text: KFAT 250353Z 00000KT 10SM CLR 22/08 A2990 RMK AO2 SLP122 T02170083
Loading
Personal Weather Stations






























Interactive Weather Map New forecast layout! Learn more

10-Day Weather Forecast

Advertisements
Track Severe Weather on mobile